Latest Coastal Weather Observations for Hamilton Island

IDQ60701

Issued at 2:45 pm EST Monday 21 April 2014 (issued every 10 minutes, with the page automatically refreshed every 10 minutes)

About coastal observations | Map of coastal stations | Coastal observations for QLD | Marine services | Other Formats
Station Details ID: 033106 Name: HAMILTON ISLAND AIRPORT Lat: -20.37 Lon: 148.95 Height: 58.66 m
Data from the previous 72 hours. | See also: Recent months at Hamilton Island
Date/Time
EST
Temp

°C
Wind Pressure Rain
since 9am
mm
Weather Cloud Vis
km
Sea
Height
m
Swell
Dir
 
Speed
knots
Gust
knots
hPa Trend Height
m
Period
s
Dir
21/02:30pm 26.2 ESE 18 22 1016.1 - 0.0 - Partly cloudy 10 - - - -
21/02:00pm 25.7 ESE 19 25 1016.2 - 0.0 - Partly cloudy 10 - - - -
21/01:30pm 26.1 ESE 18 22 1016.6 - 0.0 - Partly cloudy 10 - - - -
21/01:00pm 26.5 ESE 17 20 1016.8 - 0.0 - Partly cloudy 10 - - - -
21/12:30pm 26.7 ESE 16 19 1017.0 - 0.0 - - 10 - - - -
21/12:00pm 26.8 ESE 16 19 1017.1 - 0.0 - - 10 - - - -
21/11:30am 26.6 ESE 17 22 1017.6 - 0.0 - - 10 - - - -
21/11:00am 26.4 E 17 21 1018.1 - 0.0 - Partly cloudy 10 - - - -
21/10:30am 26.4 E 18 22 1018.5 - 0.0 - - 10 - - - -
21/10:00am 26.3 E 20 24 1018.5 - 0.0 - Partly cloudy 10 - - - -
21/09:30am 25.2 ESE 15 19 1018.5 - 0.0 - Partly cloudy 10 - - - -
21/09:00am 25.2 ESE 17 20 1018.2 - 0.0 - Mostly clear 10 - - - -
21/08:30am 25.3 ESE 17 20 1018.2 - 0.0 - - 10 - - - -
21/08:00am 25.3 E 17 19 1018.2 - 0.0 - Partly cloudy 10 - - - -
21/07:30am 25.3 ESE 16 19 1017.9 - 0.0 - - 10 - - - -
21/07:00am 24.7 E 17 19 1017.6 - 0.0 - - 10 - - - -
21/06:30am 24.4 E 16 19 1017.4 - 0.0 - Partly cloudy 10 - - - -
21/06:00am 24.0 ESE 12 14 1016.7 - 0.0 - Mostly clear 10 - - - -
21/05:30am 24.0 ESE 13 16 1016.7 - 0.0 - Partly cloudy 10 - - - -
21/05:00am 24.1 ESE 14 17 1016.5 - 0.0 - Partly cloudy 10 - - - -
21/04:30am 24.4 ESE 14 17 1016.3 - 0.0 - Partly cloudy 10 - - - -
21/04:00am 24.1 ESE 13 15 1016.2 - 0.0 - Partly cloudy - - - - -
21/03:30am 23.9 ESE 12 15 1016.2 - 0.0 - Partly cloudy 10 - - - -
21/03:00am 24.0 ESE 13 15 1016.0 - 0.0 - Mostly clear 10 - - - -
21/02:30am 24.1 ESE 13 16 1016.1 - 0.0 - Partly cloudy 10 - - - -
21/02:00am 24.1 ESE 12 15 1016.4 - 0.0 - Partly cloudy 10 - - - -
21/01:30am 24.1 ESE 13 16 1016.7 - 0.0 - - 10 - - - -
21/01:00am 24.1 ESE 12 15 1017.0 - 0.0 - Partly cloudy 10 - - - -
21/12:30am 24.1 ESE 12 15 1017.2 - 0.0 - Partly cloudy 10 - - - -
21/12:00am 24.5 ESE 13 16 1017.3 - 0.0 - Mostly clear 10 - - - -
 
Date/Time
EST
Temp

°C
Wind Pressure Rain
since 9am
mm
Weather Cloud Vis
km
Sea
Height
m
Swell
Dir
 
Speed
knots
Gust
knots
hPa Trend Height
m
Period
s
Dir
20/11:30pm 24.5 ESE 14 16 1017.7 - 0.0 - - 10 - - - -
20/11:00pm 24.5 ESE 15 18 1017.8 - 0.0 - - 10 - - - -
20/10:30pm 24.5 ESE 14 16 1017.8 - 0.0 - - 10 - - - -
20/10:00pm 24.6 ESE 14 17 1017.9 - 0.0 - - 10 - - - -
20/09:30pm 24.6 ESE 14 17 1018.0 - 0.0 - - 10 - - - -
20/09:00pm 24.9 ESE 15 19 1017.7 - 0.0 - Mostly clear 10 - - - -
20/08:30pm 24.8 ESE 16 18 1017.7 - 0.0 - Partly cloudy 10 - - - -
20/08:00pm 24.8 ESE 16 19 1017.5 - 0.0 - - 10 - - - -
20/07:30pm 24.9 ESE 16 18 1017.3 - 0.0 - - 10 - - - -
20/07:00pm 25.0 ESE 16 19 1016.8 - 0.0 - - 10 - - - -
20/06:30pm 24.7 ESE 16 19 1016.5 - 0.0 - Partly cloudy 10 - - - -
20/06:00pm 24.8 ESE 17 20 1016.0 - 0.0 - Mostly clear 10 - - - -
20/05:30pm 24.9 ESE 16 19 1015.9 - 0.0 - Partly cloudy 10 - - - -
20/05:00pm 25.2 ESE 16 18 1015.7 - 0.0 - Partly cloudy 10 - - - -
20/04:30pm 25.4 SE 15 19 1015.5 - 0.0 - - 10 - - - -
20/04:00pm 25.6 ESE 14 17 1015.2 - 0.0 - - 10 - - - -
20/03:30pm 25.9 ESE 15 17 1015.1 - 0.0 - Partly cloudy 10 - - - -
20/03:00pm 26.1 ESE 14 18 1014.9 - 0.0 - - 10 - - - -
20/02:30pm 26.2 ESE 14 16 1015.0 - 0.0 - - 10 - - - -
20/02:00pm 26.6 ESE 14 17 1015.2 - 0.0 - - 10 - - - -
20/01:30pm 26.5 ESE 13 16 1015.4 - 0.0 - Partly cloudy 10 - - - -
20/01:00pm 27.0 ESE 13 16 1015.7 - 0.0 - Partly cloudy 10 - - - -
20/12:30pm 27.0 ESE 12 14 1016.0 - 0.0 - - 10 - - - -
20/12:00pm 27.0 ESE 12 14 1016.1 - 0.0 - - 10 - - - -
20/11:30am 26.8 ESE 11 13 1016.7 - 0.0 - - 10 - - - -
20/11:00am 25.9 SSE 10 12 1017.0 - 0.0 - - 10 - - - -
20/10:30am 26.4 SSE 9 12 1017.3 - 0.0 - - 10 - - - -
20/10:00am 26.6 ESE 10 13 1017.4 - 0.0 - Partly cloudy 10 - - - -
20/09:30am 26.4 ESE 10 12 1017.4 - 0.0 - - 10 - - - -
20/09:00am 26.2 ESE 8 10 1017.0 - 0.0 - - 10 - - - -
20/08:30am 25.9 ESE 8 11 1016.9 - 0.0 - - 10 - - - -
20/08:00am 25.5 SE 9 11 1016.5 - 0.0 - - 10 - - - -
20/07:30am 24.9 E 6 10 1016.2 - 0.0 - - 10 - - - -
20/07:00am 23.8 E 4 6 1015.9 - 0.0 - - 10 - - - -
20/06:30am 23.2 E 6 7 1015.6 - 0.0 - - 10 - - - -
20/06:00am 23.2 E 5 7 1015.3 - 0.0 - Mostly clear 10 - - - -
20/05:30am 23.2 E 5 6 1015.3 - 0.0 - - 10 - - - -
20/05:00am 23.1 E 5 7 1015.1 - 0.0 - Partly cloudy 10 - - - -
20/04:30am 22.8 ENE 4 5 1015.0 - 0.0 - - 10 - - - -
20/04:00am 23.5 ENE 5 10 1014.9 - 0.0 - Partly cloudy 10 - - - -
20/03:30am 23.5 E 6 8 1014.9 - 0.0 - Partly cloudy 10 - - - -
20/03:00am 23.4 ENE 8 9 1014.7 - 0.0 - Mostly clear 10 - - - -
20/02:30am 23.1 E 4 6 1015.1 - 0.0 - Partly cloudy 10 - - - -
20/02:00am 23.1 NE 2 5 1015.3 - 0.0 - Partly cloudy 10 - - - -
20/01:30am 23.1 ENE 5 6 1015.3 - 0.0 - - 10 - - - -
20/01:00am 23.3 NE 4 5 1015.6 - 0.0 - - 10 - - - -
20/12:30am 23.4 NE 3 6 1015.7 - 0.0 - - 10 - - - -
20/12:00am 23.5 NE 5 7 1015.6 - 0.0 - - 10 - - - -
 
Date/Time
EST
Temp

°C
Wind Pressure Rain
since 9am
mm
Weather Cloud Vis
km
Sea
Height
m
Swell
Dir
 
Speed
knots
Gust
knots
hPa Trend Height
m
Period
s
Dir
19/11:30pm 23.8 NE 6 11 1015.9 - 0.0 - - 10 - - - -
19/11:00pm 24.2 ENE 10 13 1016.0 - 0.0 - - 10 - - - -
19/10:30pm 24.2 ENE 9 12 1016.1 - 0.0 - - 10 - - - -
19/10:00pm 24.4 E 8 12 1016.3 - 0.0 - - 10 - - - -
19/09:30pm 24.6 E 9 13 1016.3 - 0.0 - - 10 - - - -
19/09:00pm 24.6 E 9 13 1016.1 - 0.0 - - 10 - - - -
19/08:30pm 24.6 E 10 14 1016.1 - 0.0 - - 10 - - - -
19/08:00pm 24.8 E 10 13 1016.0 - 0.0 - - 10 - - - -
19/07:30pm 24.7 E 9 11 1015.7 - 0.0 - - 10 - - - -
19/07:00pm 24.5 ENE 8 10 1015.4 - 0.0 - - 10 - - - -
19/06:30pm 24.6 ENE 7 10 1015.1 - 0.0 - - 10 - - - -
19/06:00pm 24.6 ENE 7 11 1014.6 - 0.0 - - 10 - - - -
19/05:30pm 25.1 E 9 13 1014.8 - 0.0 - - 10 - - - -
19/05:00pm 25.4 E 10 13 1014.5 - 0.0 - - 10 - - - -
19/04:30pm 25.7 E 11 14 1014.4 - 0.0 - - 10 - - - -
19/04:00pm 25.7 E 12 16 1014.3 - 0.0 - - 10 - - - -
19/03:30pm 25.9 E 11 14 1014.3 - 0.0 - - 10 - - - -
19/03:00pm 26.5 E 10 13 1014.3 - 0.0 - - 10 - - - -
19/02:30pm 26.3 E 10 14 1014.7 - 0.0 - Partly cloudy 10 - - - -
19/02:00pm 26.9 E 8 11 1015.0 - 0.0 - Partly cloudy 10 - - - -
19/01:30pm 27.0 E 8 12 1015.3 - 0.0 - Partly cloudy 10 - - - -
19/01:00pm 27.3 E 9 11 1015.6 - 0.0 - Partly cloudy 10 - - - -
19/12:30pm 26.8 E 9 11 1015.9 - 0.0 - Partly cloudy 10 - - - -
19/12:00pm 26.2 E 9 11 1016.2 - 0.0 - Partly cloudy 10 - - - -
19/11:30am 27.2 E 9 11 1016.7 - 0.0 - Partly cloudy 10 - - - -
19/11:00am 27.4 E 7 10 1017.2 - 0.0 - Partly cloudy 10 - - - -
19/10:30am 27.1 E 8 11 1017.4 - 0.0 - Partly cloudy 10 - - - -
19/10:00am 27.1 E 9 13 1017.5 - 0.0 - Partly cloudy 10 - - - -
19/09:30am 27.4 E 7 11 1017.6 - 0.0 - Partly cloudy 10 - - - -
19/09:00am 26.9 ENE 6 10 1017.2 - 0.0 - - 10 - - - -
19/08:30am 26.9 NE 5 7 1017.3 - 0.0 - - 10 - - - -
19/08:00am 26.6 NE 4 6 1017.0 - 0.0 - - 10 - - - -
19/07:30am 25.4 NNE 2 4 1017.0 - 0.0 - - 10 - - - -
19/07:00am 23.8 NNE 3 5 1016.8 - 0.0 - Partly cloudy 10 - - - -
19/06:30am 23.6 NNE 4 5 1016.7 - 0.0 - Partly cloudy 10 - - - -
19/06:00am 23.2 CALM 0 0 1016.3 - 0.0 - Mostly clear 10 - - - -
19/05:30am 23.7 NNE 3 5 1016.1 - 0.0 - - 10 - - - -
19/05:00am 23.4 NNE 4 5 1015.8 - 0.0 - Partly cloudy 10 - - - -
19/04:30am 23.5 NE 4 5 1015.6 - 0.0 - Cloudy 10 - - - -
19/04:00am 23.8 CALM 0 3 1015.5 - 0.0 - Cloudy 10 - - - -
19/03:30am 23.8 NE 1 4 1015.5 - 0.0 - Cloudy 10 - - - -
19/03:00am 23.7 ENE 5 7 1015.4 - 0.0 - Mostly cloudy 10 - - - -
19/02:30am 23.8 CALM 0 0 1015.8 - 0.0 - Cloudy 10 - - - -
19/02:00am 23.9 CALM 0 0 1016.1 - 0.0 - Cloudy 10 - - - -
19/01:30am 24.0 N 5 6 1016.4 - 0.0 - Partly cloudy 10 - - - -
19/01:00am 23.9 NNE 6 8 1016.5 - 0.0 - Partly cloudy 10 - - - -
19/12:30am 23.8 NNE 3 4 1016.8 - 0.0 - - 10 - - - -
19/12:00am 23.6 N 4 6 1016.7 - 0.0 - Partly cloudy 10 - - - -
 
Date/Time
EST
Temp

°C
Wind Pressure Rain
since 9am
mm
Weather Cloud Vis
km
Sea
Height
m
Swell
Dir
 
Speed
knots
Gust
knots
hPa Trend Height
m
Period
s
Dir
18/11:30pm 23.4 NNW 3 4 1017.0 - 0.0 - - 10 - - - -
18/11:00pm 23.7 N 2 4 1017.1 - 0.0 - - 10 - - - -
18/10:30pm 24.2 NNE 4 5 1017.3 - 0.0 - - 10 - - - -
18/10:00pm 24.1 NE 5 6 1017.3 - 0.0 - - 10 - - - -
18/09:30pm 24.2 NE 4 5 1017.2 - 0.0 - Partly cloudy 10 - - - -
18/09:00pm 24.5 NE 6 8 1016.9 - 0.0 - Mostly clear 10 - - - -
18/08:30pm 24.5 NE 5 7 1016.9 - 0.0 - - 10 - - - -
18/08:00pm 24.8 ENE 7 10 1016.6 - 0.0 - Partly cloudy 10 - - - -
18/07:30pm 24.9 ENE 9 12 1016.2 - 0.0 - Partly cloudy 10 - - - -
18/07:00pm 25.0 ENE 9 11 1015.8 - 0.0 - Partly cloudy 10 - - - -
18/06:30pm 24.9 E 10 13 1015.4 - 0.0 - Partly cloudy 10 - - - -
18/06:00pm 25.1 E 10 13 1015.3 - 0.0 - Mostly cloudy 10 - - - -
18/05:30pm 25.4 E 11 13 1015.0 - 0.0 - Cloudy 10 - - - -
18/05:00pm 25.5 E 10 11 1014.9 - 0.0 - Cloudy 10 - - - -
18/04:30pm 25.6 E 9 13 1014.7 - 0.0 - Cloudy 10 - - - -
18/04:00pm 25.8 E 10 13 1014.2 - 0.0 - Cloudy 10 - - - -
18/03:30pm 25.9 E 11 14 1014.1 - 0.0 - Partly cloudy 10 - - - -
18/03:00pm 26.3 E 12 14 1013.8 - 0.0 - - 10 - - - -

Other Formats:

Comma delimited format used in spreadsheet applications
http://www.bom.gov.au/fwo/IDQ60701/IDQ60701.94368.axf

JavaScript Object Notation format (JSON) in row-major order
http://www.bom.gov.au/fwo/IDQ60701/IDQ60701.94368.json